.
WxDataArchive / Data Records for 2010-04-17
2010-04-16 April 2010 2010-04-18

Data Records for Saturday, 17 April 2010

Time	Temp	Chill	HIndex	Humid	Dewpt	 Wind 	HiWind	WindDir	Rain 	Barom 
-----	----	-----	------	-----	-----	------	------	-------	-----	----- 
00:00	46.8	46.8	46.8	62	34.5	0	1	315	0.00	30.045 
00:05	46.8	46.8	46.8	61	34.1	1	9	315	0.00	30.045 
00:10	47.0	47.0	47.0	59	33.4	1	6	315	0.00	30.045 
00:15	47.1	47.1	47.1	58	33.1	1	3	338	0.00	30.050 
00:20	47.1	47.1	47.1	58	33.1	1	4	292	0.00	30.050 
00:25	47.1	47.1	47.1	57	32.7	1	3	315	0.00	30.050 
00:30	47.0	47.0	47.0	57	32.6	1	3	315	0.00	30.055 
00:35	46.8	46.8	46.8	57	32.4	1	2	338	0.00	30.055 
00:40	46.7	46.7	46.7	57	32.3	0	2	338	0.00	30.055 
00:45	46.4	46.4	46.4	55	31.1	1	16	338	0.00	30.062 
00:50	46.5	46.5	46.5	53	30.3	2	6	0	0.00	30.062 
00:55	46.4	46.4	46.4	52	29.7	1	5	0	0.00	30.062 
01:00	46.2	46.2	46.2	53	30.0	1	4	338	0.00	30.066 
01:05	46.0	46.0	46.0	53	29.8	0	3	338	0.00	30.066 
01:10	45.7	45.7	45.7	53	29.6	1	4	0	0.00	30.066 
01:15	45.5	45.5	45.5	53	29.4	1	4	0	0.00	30.069 
01:20	45.4	45.4	45.4	52	28.8	1	4	0	0.00	30.069 
01:25	45.2	45.2	45.2	52	28.6	0	2	0	0.00	30.069 
01:30	45.1	45.1	45.1	52	28.5	1	2	292	0.00	30.069 
01:35	44.9	44.9	44.9	53	28.8	1	3	315	0.00	30.069 
01:40	44.6	44.6	44.6	54	29.0	0	2	22	0.00	30.069 
01:45	44.3	44.3	44.3	54	28.7	0	1	0	0.00	30.068 
01:50	44.1	44.1	44.1	55	29.0	0	0	---	0.00	30.068 
01:55	43.8	43.8	43.8	56	29.1	0	0	---	0.00	30.068 
02:00	43.3	43.3	43.3	57	29.1	0	0	---	0.00	30.069 
02:05	42.9	42.9	42.9	58	29.2	0	0	---	0.00	30.069 
02:10	42.5	42.5	42.5	59	29.2	0	1	0	0.00	30.069 
02:15	42.3	42.3	42.3	60	29.4	0	0	---	0.00	30.067 
02:20	42.1	42.1	42.1	61	29.6	0	0	---	0.00	30.067 
02:25	41.8	41.8	41.8	62	29.7	0	0	---	0.00	30.067 
02:30	41.3	41.3	41.3	62	29.3	0	0	---	0.00	30.062 
02:35	41.2	41.2	41.2	63	29.6	0	1	0	0.00	30.062 
02:40	41.1	41.1	41.1	62	29.1	0	1	0	0.00	30.062 
02:45	41.1	41.1	41.1	63	29.5	0	0	---	0.00	30.060 
02:50	40.8	40.8	40.8	63	29.2	0	0	---	0.00	30.060 
02:55	40.6	40.6	40.6	63	29.0	0	0	---	0.00	30.060 
03:00	40.3	40.3	40.3	63	28.7	0	0	---	0.00	30.056 
03:05	40.1	40.1	40.1	64	28.9	0	0	---	0.00	30.056 
03:10	39.8	39.8	39.8	65	29.0	0	0	---	0.00	30.056 
03:15	39.3	39.3	39.3	66	28.9	0	0	---	0.00	30.051 
03:20	38.9	38.9	38.9	67	28.9	0	0	---	0.00	30.051 
03:25	38.8	38.8	38.8	68	29.2	0	1	0	0.00	30.051 
03:30	38.6	38.6	38.6	68	29.0	0	2	338	0.00	30.049 
03:35	38.8	38.8	38.8	68	29.2	0	0	---	0.00	30.049 
03:40	38.6	38.6	38.6	68	29.0	0	0	---	0.00	30.049 
03:45	38.5	38.5	38.5	69	29.2	0	0	---	0.00	30.046 
03:50	38.2	38.2	38.2	69	28.9	0	0	---	0.00	30.046 
03:55	37.9	37.9	37.9	69	28.7	0	0	---	0.00	30.046 
04:00	37.8	37.8	37.8	70	28.9	0	0	---	0.00	30.043 
04:05	37.8	37.8	37.8	70	28.9	0	0	---	0.00	30.043 
04:10	37.8	37.8	37.8	70	28.9	0	0	---	0.00	30.043 
04:15	37.6	37.6	37.6	70	28.7	0	0	---	0.00	30.048 
04:20	37.5	37.5	37.5	70	28.6	0	0	---	0.00	30.048 
04:25	37.3	37.3	37.3	71	28.8	0	0	---	0.00	30.048 
04:30	37.3	37.3	37.3	71	28.8	0	1	338	0.00	30.051 
04:35	37.5	37.5	37.5	71	29.0	0	1	338	0.00	30.051 
04:40	37.8	37.8	37.8	71	29.3	0	1	338	0.00	30.051 
04:45	38.3	38.3	38.3	70	29.4	0	2	338	0.00	30.049 
04:50	38.6	38.6	38.6	69	29.3	0	2	338	0.00	30.049 
04:55	38.8	38.8	38.8	68	29.2	0	1	338	0.00	30.049 
05:00	38.9	38.9	38.9	67	28.9	0	2	338	0.00	30.050 
05:05	39.2	39.2	39.2	65	28.4	0	2	338	0.00	30.050 
05:10	39.3	39.3	39.3	64	28.2	0	2	338	0.00	30.050 
05:15	39.3	39.3	39.3	64	28.2	0	2	338	0.00	30.052 
05:20	39.3	39.3	39.3	64	28.2	0	1	338	0.00	30.052 
05:25	39.2	39.2	39.2	64	28.1	0	1	338	0.00	30.052 
05:30	39.1	39.1	39.1	64	28.0	0	2	338	0.00	30.052 
05:35	39.1	39.1	39.1	64	28.0	0	1	338	0.00	30.052 
05:40	39.1	39.1	39.1	64	28.0	0	2	338	0.00	30.052 
05:45	39.2	39.2	39.2	64	28.1	0	1	338	0.00	30.053 
05:50	39.1	39.1	39.1	64	28.0	0	0	---	0.00	30.053 
05:55	38.8	38.8	38.8	65	28.1	0	0	---	0.00	30.053 
06:00	38.5	38.5	38.5	66	28.1	0	1	338	0.00	30.054 
06:05	38.2	38.2	38.2	68	28.6	0	1	338	0.00	30.054 
06:10	37.9	37.9	37.9	69	28.7	0	1	338	0.00	30.054 
06:15	37.8	37.8	37.8	69	28.6	0	1	338	0.00	30.058 
06:20	37.6	37.6	37.6	69	28.4	0	2	338	0.00	30.058 
06:25	37.5	37.5	37.5	70	28.6	0	2	338	0.00	30.058 
06:30	37.5	37.5	37.5	69	28.3	0	2	338	0.00	30.061 
06:35	37.5	37.5	37.5	69	28.3	0	1	338	0.00	30.061 
06:40	37.6	37.6	37.6	68	28.0	0	1	338	0.00	30.061 
06:45	37.5	37.5	37.5	68	27.9	0	1	338	0.00	30.061 
06:50	37.5	37.5	37.5	68	27.9	0	1	338	0.00	30.061 
06:55	37.2	37.2	37.2	68	27.6	0	1	338	0.00	30.061 
07:00	37.0	37.0	37.0	68	27.4	0	1	338	0.00	30.068 
07:05	37.0	37.0	37.0	69	27.8	0	2	338	0.00	30.068 
07:10	37.0	37.0	37.0	69	27.8	0	1	338	0.00	30.068 
07:15	36.9	36.9	36.9	69	27.7	0	1	338	0.00	30.070 
07:20	36.9	36.9	36.9	69	27.7	0	1	338	0.00	30.070 
07:25	37.0	37.0	37.0	69	27.8	0	1	338	0.00	30.070 
07:30	37.2	37.2	37.2	69	28.0	1	2	338	0.00	30.077 
07:35	37.3	37.3	37.3	69	28.1	1	2	338	0.00	30.077 
07:40	37.6	37.6	37.6	69	28.4	1	2	338	0.00	30.077 
07:45	37.8	37.8	37.8	69	28.6	1	3	338	0.00	30.082 
07:50	38.0	38.0	38.0	69	28.7	1	4	292	0.00	30.082 
07:55	38.3	38.3	38.3	68	28.7	1	4	292	0.00	30.082 
08:00	38.8	38.8	38.8	67	28.8	1	2	0	0.00	30.089 
08:05	39.1	39.1	39.1	66	28.7	1	4	338	0.00	30.089 
08:10	39.3	39.3	39.3	65	28.5	0	2	338	0.00	30.089 
08:15	39.6	39.6	39.6	64	28.4	1	3	338	0.00	30.088 
08:20	40.1	40.1	40.1	63	28.5	1	5	338	0.00	30.088 
08:25	40.3	40.3	40.3	62	28.3	1	3	292	0.00	30.088 
08:30	40.8	40.8	40.8	60	28.0	1	3	292	0.00	30.090 
08:35	41.1	41.1	41.1	60	28.3	1	3	315	0.00	30.090 
08:40	41.5	41.5	41.5	59	28.3	1	2	315	0.00	30.090 
08:45	41.9	41.9	41.9	59	28.6	1	3	315	0.00	30.088 
08:50	42.2	42.2	42.2	58	28.5	1	5	315	0.00	30.088 
08:55	42.3	42.3	42.3	59	29.0	2	6	338	0.00	30.088 
09:00	42.3	42.3	42.3	59	29.0	2	5	270	0.00	30.090 
09:05	42.5	42.5	42.5	59	29.2	1	4	270	0.00	30.090 
09:10	42.6	42.6	42.6	59	29.3	2	6	292	0.00	30.090 
09:15	42.8	42.8	42.8	59	29.5	2	5	292	0.00	30.091 
09:20	42.9	42.9	42.9	56	28.3	2	5	292	0.00	30.091 
09:25	43.1	43.1	43.1	54	27.6	2	9	292	0.00	30.091 
09:30	43.3	43.3	43.3	54	27.8	2	6	292	0.00	30.090 
09:35	43.5	43.5	43.5	54	28.0	2	6	338	0.00	30.090 
09:40	43.6	43.6	43.6	53	27.6	2	6	338	0.00	30.090 
09:45	43.8	43.8	43.8	52	27.3	2	5	338	0.00	30.091 
09:50	44.3	44.3	44.3	52	27.8	2	4	315	0.00	30.091 
09:55	44.5	44.5	44.5	51	27.5	3	6	270	0.00	30.091 
10:00	44.5	44.5	44.5	51	27.5	2	6	315	0.00	30.090 
10:05	44.8	44.8	44.8	51	27.8	2	5	292	0.00	30.090 
10:10	44.8	44.8	44.8	50	27.3	2	7	338	0.00	30.090 
10:15	44.8	44.8	44.8	50	27.3	3	9	315	0.00	30.092 
10:20	44.8	44.8	44.8	50	27.3	3	7	315	0.00	30.092 
10:25	45.1	45.1	45.1	51	28.1	3	7	292	0.00	30.092 
10:30	45.7	45.7	45.7	51	28.6	2	5	315	0.00	30.091 
10:35	46.0	46.0	46.0	49	27.9	3	7	270	0.00	30.091 
10:40	46.0	46.0	46.0	49	27.9	2	6	292	0.00	30.091 
10:45	46.7	46.7	46.7	48	28.1	3	7	315	0.00	30.091 
10:50	47.0	47.0	47.0	48	28.3	2	5	315	0.00	30.091 
10:55	46.7	46.7	46.7	46	27.0	3	9	338	0.00	30.091 
11:00	46.5	46.5	46.5	46	26.8	3	7	315	0.00	30.091 
11:05	46.4	46.4	46.4	46	26.8	3	10	270	0.00	30.091 
11:10	47.1	47.1	47.1	50	29.4	2	4	338	0.00	30.091 
11:15	47.9	47.9	47.9	45	27.6	2	5	248	0.00	30.089 
11:20	47.9	47.9	47.9	44	27.0	2	7	292	0.00	30.089 
11:25	47.7	46.2	47.7	44	26.9	4	10	270	0.00	30.089 
11:30	48.2	48.2	48.2	43	26.8	3	7	270	0.00	30.088 
11:35	48.3	48.3	48.3	45	28.0	3	6	270	0.00	30.088 
11:40	48.5	48.5	48.5	43	27.0	3	7	248	0.00	30.088 
11:45	48.5	48.5	48.5	43	27.0	3	7	248	0.00	30.076 
11:50	48.6	48.6	48.6	44	27.7	2	4	315	0.00	30.076 
11:55	48.5	48.5	48.5	43	27.0	3	8	315	0.00	30.076 
12:00	48.2	48.2	48.2	43	26.8	3	8	315	0.00	30.076 
12:05	48.5	48.5	48.5	44	27.6	3	6	292	0.00	30.076 
12:10	48.8	48.8	48.8	43	27.3	3	7	270	0.00	30.076 
12:15	49.4	49.4	49.4	41	26.7	3	7	270	0.00	30.074 
12:20	49.5	49.5	49.5	43	27.9	3	9	292	0.00	30.074 
12:25	49.8	49.8	49.8	42	27.6	3	6	270	0.00	30.074 
12:30	50.2	50.2	50.2	41	27.4	4	7	270	0.00	30.071 
12:35	50.4	50.4	50.4	41	27.6	3	7	270	0.00	30.071 
12:40	50.5	50.5	50.5	46	30.5	3	6	315	0.00	30.071 
12:45	50.4	50.4	50.4	43	28.8	4	9	270	0.00	30.064 
12:50	50.4	50.4	50.4	35	23.8	4	9	270	0.00	30.064 
12:55	50.4	50.4	50.4	40	27.0	3	10	270	0.00	30.064 
13:00	51.1	51.1	51.1	41	28.2	2	5	292	0.00	30.058 
13:05	51.1	51.1	51.1	38	26.4	2	6	270	0.00	30.058 
13:10	51.6	51.6	51.6	38	26.8	3	6	292	0.00	30.058 
13:15	51.3	51.3	51.3	35	24.6	3	7	270	0.00	30.060 
13:20	51.4	51.4	51.4	33	23.3	3	7	270	0.00	30.060 
13:25	51.3	51.3	51.3	30	20.9	4	11	338	0.00	30.060 
13:30	51.0	51.0	51.0	32	22.2	4	10	315	0.00	30.059 
13:35	51.0	51.0	51.0	36	25.0	3	7	270	0.00	30.059 
13:40	51.7	51.7	51.7	33	23.5	4	11	270	0.00	30.059 
13:45	51.7	51.7	51.7	32	22.8	4	10	270	0.00	30.059 
13:50	51.7	51.7	51.7	36	25.6	3	7	270	0.00	30.059 
13:55	52.2	52.2	52.2	35	25.4	3	7	270	0.00	30.059 
14:00	52.2	52.2	52.2	29	20.9	3	6	315	0.00	30.056 
14:05	51.9	51.9	51.9	27	19.0	3	9	270	0.00	30.056 
14:10	52.2	52.2	52.2	28	20.1	3	9	315	0.00	30.056 
14:15	52.3	52.3	52.3	31	22.6	4	10	270	0.00	30.060 
14:20	52.5	52.5	52.5	28	20.4	3	10	270	0.00	30.060 
14:25	52.3	52.3	52.3	27	19.3	3	7	270	0.00	30.060 
14:30	52.5	52.5	52.5	28	20.4	2	6	338	0.00	30.056 
14:35	52.5	52.5	52.5	27	19.5	4	9	270	0.00	30.056 
14:40	52.2	52.2	52.2	27	19.2	4	9	292	0.00	30.056 
14:45	51.7	51.7	51.7	25	17.0	4	10	315	0.00	30.057 
14:50	51.7	51.7	51.7	25	17.0	3	7	292	0.00	30.057 
14:55	51.4	51.4	51.4	28	19.4	4	11	292	0.00	30.057 
15:00	51.7	51.7	51.7	27	18.8	2	4	338	0.00	30.052 
15:05	52.2	52.2	52.2	25	17.5	3	7	315	0.00	30.052 
15:10	52.5	52.5	52.5	25	17.7	4	7	270	0.00	30.052 
15:15	52.3	52.3	52.3	28	20.2	4	7	270	0.00	30.062 
15:20	52.2	52.2	52.2	25	17.5	3	9	315	0.00	30.062 
15:25	52.3	52.3	52.3	26	18.4	3	10	270	0.00	30.062 
15:30	51.9	51.9	51.9	25	17.2	4	10	338	0.00	30.055 
15:35	52.0	52.0	52.0	24	16.3	3	8	338	0.00	30.055 
15:40	52.0	52.0	52.0	24	16.3	3	9	292	0.00	30.055 
15:45	51.6	51.6	51.6	24	16.0	3	11	338	0.00	30.059 
15:50	51.3	51.3	51.3	23	14.8	4	7	292	0.00	30.059 
15:55	51.1	51.1	51.1	23	14.6	3	10	315	0.00	30.059 
16:00	51.1	51.1	51.1	25	16.5	3	8	292	0.00	30.060 
16:05	51.7	51.7	51.7	26	17.9	3	7	315	0.00	30.060 
16:10	51.6	51.6	51.6	22	14.0	4	10	292	0.00	30.060 
16:15	51.3	51.3	51.3	24	15.8	3	9	315	0.00	30.062 
16:20	51.1	51.1	51.1	25	16.5	3	6	270	0.00	30.062 
16:25	51.1	51.1	51.1	23	14.6	4	11	292	0.00	30.062 
16:30	51.0	51.0	51.0	24	15.5	5	16	315	0.00	30.065 
16:35	50.5	50.5	50.5	24	15.1	4	12	292	0.00	30.065 
16:40	50.5	50.5	50.5	27	17.8	4	11	292	0.00	30.065 
16:45	50.1	50.1	50.1	26	16.6	5	12	315	0.00	30.073 
16:50	49.6	49.6	49.6	27	17.0	3	7	315	0.00	30.073 
16:55	49.8	48.0	49.8	26	16.3	5	12	270	0.00	30.073 
17:00	49.6	48.4	49.6	27	17.0	4	10	270	0.00	30.075 
17:05	49.4	47.5	49.4	26	16.0	5	11	315	0.00	30.075 
17:10	49.2	47.9	49.2	27	16.7	4	12	270	0.00	30.075 
17:15	49.4	49.4	49.4	28	17.7	3	7	315	0.00	30.080 
17:20	49.6	49.6	49.6	28	17.9	3	7	315	0.00	30.080 
17:25	49.6	48.4	49.6	28	17.9	4	11	315	0.00	30.080 
17:30	49.4	48.2	49.4	28	17.7	4	12	315	0.00	30.081 
17:35	49.2	49.2	49.2	30	19.1	3	9	315	0.00	30.081 
17:40	49.2	47.3	49.2	28	17.5	5	11	292	0.00	30.081 
17:45	49.4	49.4	49.4	28	17.7	3	13	338	0.00	30.081 
17:50	49.4	48.2	49.4	30	19.3	4	13	315	0.00	30.081 
17:55	49.6	49.6	49.6	29	18.7	3	10	315	0.00	30.081 
18:00	49.4	48.2	49.4	28	17.7	4	10	292	0.00	30.082 
18:05	49.8	49.8	49.8	32	21.1	0	2	315	0.00	30.082 
18:10	49.9	49.9	49.9	27	17.3	3	6	338	0.00	30.082 
18:15	49.6	48.4	49.6	28	17.9	4	9	315	0.00	30.086 
18:20	49.5	48.3	49.5	28	17.8	4	7	292	0.00	30.086 
18:25	49.4	49.4	49.4	28	17.7	3	11	270	0.00	30.086 
18:30	49.4	48.2	49.4	28	17.7	4	12	292	0.00	30.090 
18:35	49.2	49.2	49.2	27	16.7	3	9	315	0.00	30.090 
18:40	48.8	47.5	48.8	28	17.2	4	11	292	0.00	30.090 
18:45	48.8	48.8	48.8	28	17.2	3	9	315	0.00	30.090 
18:50	48.9	46.9	48.9	27	16.4	5	10	315	0.00	30.090 
18:55	48.9	48.9	48.9	29	18.1	3	9	292	0.00	30.090 
19:00	48.8	48.8	48.8	28	17.2	2	5	315	0.00	30.095 
19:05	48.6	48.6	48.6	28	17.0	2	6	315	0.00	30.095 
19:10	48.6	48.6	48.6	28	17.0	3	8	270	0.00	30.095 
19:15	48.5	48.5	48.5	27	16.1	3	7	338	0.00	30.095 
19:20	48.5	48.5	48.5	28	16.9	3	12	292	0.00	30.095 
19:25	48.3	48.3	48.3	28	16.7	2	9	0	0.00	30.095 
19:30	48.3	48.3	48.3	30	18.3	2	5	292	0.00	30.094 
19:35	48.3	48.3	48.3	27	15.9	3	5	270	0.00	30.094 
19:40	48.3	48.3	48.3	29	17.5	1	5	338	0.00	30.094 
19:45	48.2	48.2	48.2	27	15.8	2	6	292	0.00	30.087 
19:50	48.2	48.2	48.2	27	15.8	3	7	292	0.00	30.087 
19:55	48.2	48.2	48.2	28	16.6	2	7	338	0.00	30.087 
20:00	48.2	48.2	48.2	28	16.6	2	5	338	0.00	30.085 
20:05	48.0	48.0	48.0	29	17.3	1	3	315	0.00	30.085 
20:10	47.9	47.9	47.9	28	16.4	2	6	270	0.00	30.085 
20:15	47.9	47.9	47.9	28	16.4	1	4	338	0.00	30.081 
20:20	47.6	47.6	47.6	28	16.1	2	5	315	0.00	30.081 
20:25	47.6	47.6	47.6	27	15.3	2	5	315	0.00	30.081 
20:30	47.4	47.4	47.4	27	15.1	2	4	315	0.00	30.082 
20:35	47.3	47.3	47.3	28	15.9	1	4	315	0.00	30.082 
20:40	47.1	47.1	47.1	29	16.5	1	4	315	0.00	30.082 
20:45	46.8	46.8	46.8	29	16.2	1	3	338	0.00	30.084 
20:50	46.5	46.5	46.5	29	16.0	0	2	338	0.00	30.084 
20:55	46.4	46.4	46.4	29	15.9	1	3	338	0.00	30.084 
21:00	46.4	46.4	46.4	29	15.9	1	3	270	0.00	30.088 
21:05	46.1	46.1	46.1	29	15.6	1	3	225	0.00	30.088 
21:10	46.0	46.0	46.0	28	14.7	1	4	270	0.00	30.088 
21:15	45.8	45.8	45.8	29	15.4	1	3	338	0.00	30.086 
21:20	45.5	45.5	45.5	29	15.1	0	2	338	0.00	30.086 
21:25	45.4	45.4	45.4	30	15.8	0	2	338	0.00	30.086 
21:30	45.1	45.1	45.1	30	15.5	0	3	338	0.00	30.086 
21:35	44.9	44.9	44.9	30	15.4	1	3	270	0.00	30.086 
21:40	44.9	44.9	44.9	31	16.1	0	2	315	0.00	30.086 
21:45	44.8	44.8	44.8	31	16.0	0	4	292	0.00	30.095 
21:50	44.5	44.5	44.5	32	16.5	0	3	292	0.00	30.095 
21:55	44.3	44.3	44.3	33	17.0	0	2	270	0.00	30.095 
22:00	44.1	44.1	44.1	34	17.5	0	1	292	0.00	30.102 
22:05	43.9	43.9	43.9	34	17.4	0	2	292	0.00	30.102 
22:10	43.8	43.8	43.8	34	17.3	0	4	270	0.00	30.102 
22:15	43.6	43.6	43.6	35	17.8	0	3	270	0.00	30.102 
22:20	43.5	43.5	43.5	35	17.7	1	3	270	0.00	30.102 
22:25	43.6	43.6	43.6	36	18.4	1	4	292	0.00	30.102 
22:30	43.6	43.6	43.6	36	18.4	1	3	292	0.00	30.107 
22:35	43.5	43.5	43.5	38	19.6	0	2	292	0.00	30.107 
22:40	43.3	43.3	43.3	38	19.4	0	4	292	0.00	30.107 
22:45	43.2	43.2	43.2	39	19.9	0	3	292	0.00	30.111 
22:50	43.1	43.1	43.1	39	19.8	0	2	292	0.00	30.111 
22:55	42.9	42.9	42.9	40	20.3	0	2	315	0.00	30.111 
23:00	42.8	42.8	42.8	41	20.7	0	1	315	0.00	30.111 
23:05	42.5	42.5	42.5	42	21.0	0	2	315	0.00	30.111 
23:10	42.2	42.2	42.2	43	21.3	0	1	315	0.00	30.111 
23:15	41.9	41.9	41.9	43	21.1	0	1	315	0.00	30.112 
23:20	41.6	41.6	41.6	44	21.3	0	1	315	0.00	30.112 
23:25	41.3	41.3	41.3	44	21.0	0	1	315	0.00	30.112 
23:30	41.2	41.2	41.2	45	21.5	0	0	---	0.00	30.114 
23:35	40.9	40.9	40.9	46	21.7	0	0	---	0.00	30.114 
23:40	40.8	40.8	40.8	46	21.6	0	1	315	0.00	30.114 
23:45	40.8	40.8	40.8	47	22.1	0	0	---	0.00	30.115 
23:50	40.6	40.6	40.6	47	22.0	0	0	---	0.00	30.115 
23:55	40.5	40.5	40.5	48	22.4	0	1	315	0.00	30.115 

CoCoRaHS
IN-AL-39
A2 Web Hosting
Creative Commons License
GoDaddy
search engine by freefind advanced

loaded 2018-11-16 23:51:40 • last modified 2010-11-18 10:43:29
Privacy PolicyDisclaimer
• wx.awcolley.com is powered by PmWiki v.2002016 •
• all content (unless otherwise noted) © 2018 A W Colley